sensor_id;sensor_type;location;lat;lon;timestamp;temperature;humidity
66373;SHT30;53168;51.146;17.120;2024-01-15T00:00:43;1.45;78.84
66373;SHT30;53168;51.146;17.120;2024-01-15T00:03:37;1.46;78.93
66373;SHT30;53168;51.146;17.120;2024-01-15T00:06:13;1.47;78.99
66373;SHT30;53168;51.146;17.120;2024-01-15T00:08:47;1.48;78.95
66373;SHT30;53168;51.146;17.120;2024-01-15T00:11:21;1.49;78.87
66373;SHT30;53168;51.146;17.120;2024-01-15T00:13:55;1.52;78.73
66373;SHT30;53168;51.146;17.120;2024-01-15T00:16:29;1.53;78.59
66373;SHT30;53168;51.146;17.120;2024-01-15T00:19:03;1.53;78.43
66373;SHT30;53168;51.146;17.120;2024-01-15T00:21:37;1.56;78.26
66373;SHT30;53168;51.146;17.120;2024-01-15T00:24:11;1.59;78.06
66373;SHT30;53168;51.146;17.120;2024-01-15T00:26:45;1.62;77.88
66373;SHT30;53168;51.146;17.120;2024-01-15T00:29:19;1.69;77.43
66373;SHT30;53168;51.146;17.120;2024-01-15T00:31:53;1.76;77.05
66373;SHT30;53168;51.146;17.120;2024-01-15T00:34:27;1.80;76.98
66373;SHT30;53168;51.146;17.120;2024-01-15T00:37:01;1.82;76.87
66373;SHT30;53168;51.146;17.120;2024-01-15T00:39:37;1.85;76.78
66373;SHT30;53168;51.146;17.120;2024-01-15T00:42:11;1.86;76.61
66373;SHT30;53168;51.146;17.120;2024-01-15T00:44:46;1.87;76.39
66373;SHT30;53168;51.146;17.120;2024-01-15T00:47:20;1.90;76.27
66373;SHT30;53168;51.146;17.120;2024-01-15T00:57:06;1.99;75.77
66373;SHT30;53168;51.146;17.120;2024-01-15T00:59:36;2.00;75.71
66373;SHT30;53168;51.146;17.120;2024-01-15T01:02:06;2.00;75.58
66373;SHT30;53168;51.146;17.120;2024-01-15T01:04:35;2.02;75.52
66373;SHT30;53168;51.146;17.120;2024-01-15T01:07:05;2.02;75.40
66373;SHT30;53168;51.146;17.120;2024-01-15T01:09:35;2.01;75.44
66373;SHT30;53168;51.146;17.120;2024-01-15T01:12:06;2.00;75.36
66373;SHT30;53168;51.146;17.120;2024-01-15T01:14:36;2.00;75.19
66373;SHT30;53168;51.146;17.120;2024-01-15T01:17:05;2.03;74.82
66373;SHT30;53168;51.146;17.120;2024-01-15T01:19:35;2.02;74.83
66373;SHT30;53168;51.146;17.120;2024-01-15T01:22:05;2.03;74.72
66373;SHT30;53168;51.146;17.120;2024-01-15T01:24:34;2.03;74.66
66373;SHT30;53168;51.146;17.120;2024-01-15T01:27:04;2.04;74.64
66373;SHT30;53168;51.146;17.120;2024-01-15T01:29:35;2.04;74.67
66373;SHT30;53168;51.146;17.120;2024-01-15T01:32:06;2.05;74.48
66373;SHT30;53168;51.146;17.120;2024-01-15T01:34:40;2.07;74.40
66373;SHT30;53168;51.146;17.120;2024-01-15T01:37:11;2.08;74.25
66373;SHT30;53168;51.146;17.120;2024-01-15T01:39:42;2.09;74.09
66373;SHT30;53168;51.146;17.120;2024-01-15T01:42:13;2.11;73.97
66373;SHT30;53168;51.146;17.120;2024-01-15T01:44:43;2.10;74.06
66373;SHT30;53168;51.146;17.120;2024-01-15T01:47:12;2.11;73.87
66373;SHT30;53168;51.146;17.120;2024-01-15T01:49:45;2.13;73.75
66373;SHT30;53168;51.146;17.120;2024-01-15T01:52:15;2.13;73.72
66373;SHT30;53168;51.146;17.120;2024-01-15T01:54:45;2.13;73.75
66373;SHT30;53168;51.146;17.120;2024-01-15T01:57:16;2.12;73.72
66373;SHT30;53168;51.146;17.120;2024-01-15T01:59:48;2.12;73.70
66373;SHT30;53168;51.146;17.120;2024-01-15T02:02:17;2.12;73.65
66373;SHT30;53168;51.146;17.120;2024-01-15T02:04:50;2.11;73.88
66373;SHT30;53168;51.146;17.120;2024-01-15T02:07:57;2.09;74.09
66373;SHT30;53168;51.146;17.120;2024-01-15T02:10:27;2.06;74.15
66373;SHT30;53168;51.146;17.120;2024-01-15T02:12:57;2.03;74.31
66373;SHT30;53168;51.146;17.120;2024-01-15T02:15:27;2.00;74.58
66373;SHT30;53168;51.146;17.120;2024-01-15T02:17:58;1.95;75.11
66373;SHT30;53168;51.146;17.120;2024-01-15T02:20:30;1.84;75.50
66373;SHT30;53168;51.146;17.120;2024-01-15T02:23:09;1.77;75.75
66373;SHT30;53168;51.146;17.120;2024-01-15T02:25:42;1.70;76.07
66373;SHT30;53168;51.146;17.120;2024-01-15T02:28:15;1.62;76.51
66373;SHT30;53168;51.146;17.120;2024-01-15T02:30:46;1.54;76.74
66373;SHT30;53168;51.146;17.120;2024-01-15T02:33:16;1.49;76.86
66373;SHT30;53168;51.146;17.120;2024-01-15T02:35:47;1.45;77.03
66373;SHT30;53168;51.146;17.120;2024-01-15T02:38:18;1.42;77.04
66373;SHT30;53168;51.146;17.120;2024-01-15T02:40:49;1.42;77.07
66373;SHT30;53168;51.146;17.120;2024-01-15T02:43:19;1.41;77.12
66373;SHT30;53168;51.146;17.120;2024-01-15T02:45:48;1.41;77.22
66373;SHT30;53168;51.146;17.120;2024-01-15T02:48:18;1.37;77.28
66373;SHT30;53168;51.146;17.120;2024-01-15T02:50:48;1.38;77.32
66373;SHT30;53168;51.146;17.120;2024-01-15T02:53:18;1.37;77.37
66373;SHT30;53168;51.146;17.120;2024-01-15T02:55:48;1.38;77.39
66373;SHT30;53168;51.146;17.120;2024-01-15T02:58:17;1.39;77.39
66373;SHT30;53168;51.146;17.120;2024-01-15T03:00:47;1.38;77.51
66373;SHT30;53168;51.146;17.120;2024-01-15T03:03:17;1.34;77.67
66373;SHT30;53168;51.146;17.120;2024-01-15T03:05:47;1.32;77.82
66373;SHT30;53168;51.146;17.120;2024-01-15T03:08:17;1.31;78.00
66373;SHT30;53168;51.146;17.120;2024-01-15T03:10:46;1.31;78.00
66373;SHT30;53168;51.146;17.120;2024-01-15T03:13:16;1.33;78.06
66373;SHT30;53168;51.146;17.120;2024-01-15T03:15:47;1.34;78.00
66373;SHT30;53168;51.146;17.120;2024-01-15T03:18:17;1.36;77.87
66373;SHT30;53168;51.146;17.120;2024-01-15T03:20:47;1.38;77.78
66373;SHT30;53168;51.146;17.120;2024-01-15T03:23:16;1.42;77.64
66373;SHT30;53168;51.146;17.120;2024-01-15T03:37:11;1.68;76.91
66373;SHT30;53168;51.146;17.120;2024-01-15T03:39:45;1.65;76.98
66373;SHT30;53168;51.146;17.120;2024-01-15T03:42:19;1.66;77.01
66373;SHT30;53168;51.146;17.120;2024-01-15T03:44:52;1.66;77.10
66373;SHT30;53168;51.146;17.120;2024-01-15T03:47:27;1.66;77.17
66373;SHT30;53168;51.146;17.120;2024-01-15T03:50:01;1.66;77.20
66373;SHT30;53168;51.146;17.120;2024-01-15T03:52:35;1.65;77.29
66373;SHT30;53168;51.146;17.120;2024-01-15T03:55:09;1.64;77.30
66373;SHT30;53168;51.146;17.120;2024-01-15T03:57:43;1.62;77.32
66373;SHT30;53168;51.146;17.120;2024-01-15T04:00:18;1.61;77.24
66373;SHT30;53168;51.146;17.120;2024-01-15T04:02:52;1.62;77.12
66373;SHT30;53168;51.146;17.120;2024-01-15T04:05:26;1.64;77.04
66373;SHT30;53168;51.146;17.120;2024-01-15T04:08:00;1.65;76.69
66373;SHT30;53168;51.146;17.120;2024-01-15T04:10:34;1.69;76.32
66373;SHT30;53168;51.146;17.120;2024-01-15T04:13:07;1.71;76.13
66373;SHT30;53168;51.146;17.120;2024-01-15T04:15:41;1.73;75.90
66373;SHT30;53168;51.146;17.120;2024-01-15T04:18:17;1.75;75.73
66373;SHT30;53168;51.146;17.120;2024-01-15T04:20:51;1.78;75.57
66373;SHT30;53168;51.146;17.120;2024-01-15T04:23:25;1.78;75.62
66373;SHT30;53168;51.146;17.120;2024-01-15T04:25:59;1.79;75.50
66373;SHT30;53168;51.146;17.120;2024-01-15T04:28:33;1.82;75.42
66373;SHT30;53168;51.146;17.120;2024-01-15T04:31:07;1.86;75.36
66373;SHT30;53168;51.146;17.120;2024-01-15T04:33:41;1.89;75.26
66373;SHT30;53168;51.146;17.120;2024-01-15T04:36:15;1.91;75.21
66373;SHT30;53168;51.146;17.120;2024-01-15T04:38:49;1.91;75.25
66373;SHT30;53168;51.146;17.120;2024-01-15T04:41:23;1.93;75.11
66373;SHT30;53168;51.146;17.120;2024-01-15T04:43:57;1.94;75.14
66373;SHT30;53168;51.146;17.120;2024-01-15T04:46:32;1.95;75.09
66373;SHT30;53168;51.146;17.120;2024-01-15T04:49:05;1.95;74.94
66373;SHT30;53168;51.146;17.120;2024-01-15T04:51:40;1.95;74.96
66373;SHT30;53168;51.146;17.120;2024-01-15T04:54:14;1.95;75.03
66373;SHT30;53168;51.146;17.120;2024-01-15T04:56:49;1.95;74.96
66373;SHT30;53168;51.146;17.120;2024-01-15T04:59:22;1.96;74.98
66373;SHT30;53168;51.146;17.120;2024-01-15T05:01:56;1.96;75.02
66373;SHT30;53168;51.146;17.120;2024-01-15T05:04:30;1.95;74.90
66373;SHT30;53168;51.146;17.120;2024-01-15T05:07:05;1.96;74.69
66373;SHT30;53168;51.146;17.120;2024-01-15T05:09:39;1.96;74.65
66373;SHT30;53168;51.146;17.120;2024-01-15T05:12:13;1.96;74.53
66373;SHT30;53168;51.146;17.120;2024-01-15T05:14:49;1.95;74.46
66373;SHT30;53168;51.146;17.120;2024-01-15T05:17:23;1.94;74.58
66373;SHT30;53168;51.146;17.120;2024-01-15T05:19:57;1.95;74.60
66373;SHT30;53168;51.146;17.120;2024-01-15T05:22:31;1.95;74.63
66373;SHT30;53168;51.146;17.120;2024-01-15T05:25:06;1.93;74.87
66373;SHT30;53168;51.146;17.120;2024-01-15T05:27:40;1.88;75.29
66373;SHT30;53168;51.146;17.120;2024-01-15T05:30:16;1.85;75.57
66373;SHT30;53168;51.146;17.120;2024-01-15T05:32:50;1.82;75.90
66373;SHT30;53168;51.146;17.120;2024-01-15T05:35:24;1.76;76.23
66373;SHT30;53168;51.146;17.120;2024-01-15T05:37:58;1.69;76.68
66373;SHT30;53168;51.146;17.120;2024-01-15T05:40:33;1.61;77.08
66373;SHT30;53168;51.146;17.120;2024-01-15T05:43:07;1.55;77.42
66373;SHT30;53168;51.146;17.120;2024-01-15T05:45:44;1.50;77.67
66373;SHT30;53168;51.146;17.120;2024-01-15T05:48:18;1.45;78.03
66373;SHT30;53168;51.146;17.120;2024-01-15T05:50:52;1.41;78.33
66373;SHT30;53168;51.146;17.120;2024-01-15T05:53:26;1.38;78.58
66373;SHT30;53168;51.146;17.120;2024-01-15T05:56:00;1.36;78.80
66373;SHT30;53168;51.146;17.120;2024-01-15T05:58:34;1.35;78.95
66373;SHT30;53168;51.146;17.120;2024-01-15T06:01:08;1.34;79.07
66373;SHT30;53168;51.146;17.120;2024-01-15T06:03:42;1.35;79.14
66373;SHT30;53168;51.146;17.120;2024-01-15T06:06:15;1.36;79.16
66373;SHT30;53168;51.146;17.120;2024-01-15T06:08:49;1.37;79.16
66373;SHT30;53168;51.146;17.120;2024-01-15T06:11:24;1.40;79.17
66373;SHT30;53168;51.146;17.120;2024-01-15T06:14:02;1.43;79.11
66373;SHT30;53168;51.146;17.120;2024-01-15T06:16:37;1.47;78.91
66373;SHT30;53168;51.146;17.120;2024-01-15T06:19:10;1.51;78.79
66373;SHT30;53168;51.146;17.120;2024-01-15T06:21:44;1.54;78.70
66373;SHT30;53168;51.146;17.120;2024-01-15T06:24:18;1.57;78.57
66373;SHT30;53168;51.146;17.120;2024-01-15T06:26:53;1.59;78.53
66373;SHT30;53168;51.146;17.120;2024-01-15T06:29:28;1.61;78.47
66373;SHT30;53168;51.146;17.120;2024-01-15T06:32:02;1.63;78.36
66373;SHT30;53168;51.146;17.120;2024-01-15T06:34:37;1.65;78.29
66373;SHT30;53168;51.146;17.120;2024-01-15T06:37:11;1.66;78.22
66373;SHT30;53168;51.146;17.120;2024-01-15T06:39:44;1.68;78.15
66373;SHT30;53168;51.146;17.120;2024-01-15T06:42:18;1.72;78.07
66373;SHT30;53168;51.146;17.120;2024-01-15T06:44:53;1.73;78.00
66373;SHT30;53168;51.146;17.120;2024-01-15T06:47:27;1.74;78.00
66373;SHT30;53168;51.146;17.120;2024-01-15T06:50:04;1.74;77.92
66373;SHT30;53168;51.146;17.120;2024-01-15T06:52:38;1.75;77.66
66373;SHT30;53168;51.146;17.120;2024-01-15T06:55:12;1.76;77.64
66373;SHT30;53168;51.146;17.120;2024-01-15T06:57:46;1.79;77.45
66373;SHT30;53168;51.146;17.120;2024-01-15T07:00:20;1.81;77.30
66373;SHT30;53168;51.146;17.120;2024-01-15T07:02:54;1.84;76.96
66373;SHT30;53168;51.146;17.120;2024-01-15T07:05:28;1.85;76.83
66373;SHT30;53168;51.146;17.120;2024-01-15T07:08:03;1.86;76.55
66373;SHT30;53168;51.146;17.120;2024-01-15T07:10:37;1.86;76.45
66373;SHT30;53168;51.146;17.120;2024-01-15T07:13:11;1.90;76.14
66373;SHT30;53168;51.146;17.120;2024-01-15T07:15:44;1.90;76.10
66373;SHT30;53168;51.146;17.120;2024-01-15T07:18:18;1.89;76.06
66373;SHT30;53168;51.146;17.120;2024-01-15T07:20:53;1.90;75.88
66373;SHT30;53168;51.146;17.120;2024-01-15T07:23:26;1.91;75.67
66373;SHT30;53168;51.146;17.120;2024-01-15T07:26:01;1.93;75.40
66373;SHT30;53168;51.146;17.120;2024-01-15T07:28:36;1.95;75.18
66373;SHT30;53168;51.146;17.120;2024-01-15T07:31:11;1.95;75.16
66373;SHT30;53168;51.146;17.120;2024-01-15T07:33:47;1.98;75.11
66373;SHT30;53168;51.146;17.120;2024-01-15T07:36:21;2.01;74.84
66373;SHT30;53168;51.146;17.120;2024-01-15T07:38:55;2.04;74.64
66373;SHT30;53168;51.146;17.120;2024-01-15T07:41:29;2.04;74.51
66373;SHT30;53168;51.146;17.120;2024-01-15T07:44:03;2.04;74.36
66373;SHT30;53168;51.146;17.120;2024-01-15T07:46:37;2.07;74.23
66373;SHT30;53168;51.146;17.120;2024-01-15T07:49:12;2.09;74.19
66373;SHT30;53168;51.146;17.120;2024-01-15T07:51:46;2.13;73.81
66373;SHT30;53168;51.146;17.120;2024-01-15T07:54:20;2.14;73.85
66373;SHT30;53168;51.146;17.120;2024-01-15T07:56:58;2.16;73.50
66373;SHT30;53168;51.146;17.120;2024-01-15T07:59:34;2.20;73.30
66373;SHT30;53168;51.146;17.120;2024-01-15T08:02:08;2.22;72.90
66373;SHT30;53168;51.146;17.120;2024-01-15T08:04:42;2.25;72.89
66373;SHT30;53168;51.146;17.120;2024-01-15T08:07:17;2.26;72.96
66373;SHT30;53168;51.146;17.120;2024-01-15T08:09:51;2.26;72.79
66373;SHT30;53168;51.146;17.120;2024-01-15T08:12:27;2.29;72.74
66373;SHT30;53168;51.146;17.120;2024-01-15T08:15:02;2.31;72.38
66373;SHT30;53168;51.146;17.120;2024-01-15T08:17:36;2.33;71.80
66373;SHT30;53168;51.146;17.120;2024-01-15T08:20:11;2.32;71.77
66373;SHT30;53168;51.146;17.120;2024-01-15T08:22:47;2.30;71.59
66373;SHT30;53168;51.146;17.120;2024-01-15T08:25:21;2.28;71.49
66373;SHT30;53168;51.146;17.120;2024-01-15T08:28:01;2.28;71.25
66373;SHT30;53168;51.146;17.120;2024-01-15T08:30:36;2.31;71.41
66373;SHT30;53168;51.146;17.120;2024-01-15T08:33:10;2.32;71.38
66373;SHT30;53168;51.146;17.120;2024-01-15T08:35:52;2.36;70.97
66373;SHT30;53168;51.146;17.120;2024-01-15T08:38:27;2.38;70.91
66373;SHT30;53168;51.146;17.120;2024-01-15T08:41:01;2.39;70.72
66373;SHT30;53168;51.146;17.120;2024-01-15T08:43:36;2.40;70.53
66373;SHT30;53168;51.146;17.120;2024-01-15T08:46:10;2.41;70.72
66373;SHT30;53168;51.146;17.120;2024-01-15T08:48:44;2.43;70.56
66373;SHT30;53168;51.146;17.120;2024-01-15T08:51:18;2.46;70.61
66373;SHT30;53168;51.146;17.120;2024-01-15T08:53:52;2.48;70.56
66373;SHT30;53168;51.146;17.120;2024-01-15T08:56:26;2.49;70.60
66373;SHT30;53168;51.146;17.120;2024-01-15T09:11:37;2.78;69.13
66373;SHT30;53168;51.146;17.120;2024-01-15T09:14:11;2.78;69.52
66373;SHT30;53168;51.146;17.120;2024-01-15T09:16:48;2.75;69.38
66373;SHT30;53168;51.146;17.120;2024-01-15T09:19:23;2.75;69.09
66373;SHT30;53168;51.146;17.120;2024-01-15T09:21:59;2.76;69.07
66373;SHT30;53168;51.146;17.120;2024-01-15T09:24:35;2.75;69.22
66373;SHT30;53168;51.146;17.120;2024-01-15T09:27:09;2.76;69.04
66373;SHT30;53168;51.146;17.120;2024-01-15T09:29:43;2.75;68.80
66373;SHT30;53168;51.146;17.120;2024-01-15T09:32:17;2.73;69.05
66373;SHT30;53168;51.146;17.120;2024-01-15T09:34:51;2.72;68.65
66373;SHT30;53168;51.146;17.120;2024-01-15T09:37:26;2.73;68.42
66373;SHT30;53168;51.146;17.120;2024-01-15T09:40:17;2.73;68.62
66373;SHT30;53168;51.146;17.120;2024-01-15T09:42:53;2.75;68.86
66373;SHT30;53168;51.146;17.120;2024-01-15T10:02:56;3.10;67.56
66373;SHT30;53168;51.146;17.120;2024-01-15T10:05:29;3.10;67.23
66373;SHT30;53168;51.146;17.120;2024-01-15T10:08:01;3.10;67.08
66373;SHT30;53168;51.146;17.120;2024-01-15T10:10:33;3.09;67.36
66373;SHT30;53168;51.146;17.120;2024-01-15T10:13:05;3.11;67.09
66373;SHT30;53168;51.146;17.120;2024-01-15T10:15:36;3.14;66.83
66373;SHT30;53168;51.146;17.120;2024-01-15T10:18:07;3.16;66.98
66373;SHT30;53168;51.146;17.120;2024-01-15T10:20:37;3.14;66.87
66373;SHT30;53168;51.146;17.120;2024-01-15T10:23:08;3.12;67.01
66373;SHT30;53168;51.146;17.120;2024-01-15T10:25:38;3.08;66.66
66373;SHT30;53168;51.146;17.120;2024-01-15T10:28:17;3.04;66.89
66373;SHT30;53168;51.146;17.120;2024-01-15T10:30:56;3.01;67.36
66373;SHT30;53168;51.146;17.120;2024-01-15T10:33:32;3.01;67.12
66373;SHT30;53168;51.146;17.120;2024-01-15T10:36:05;3.00;67.17
66373;SHT30;53168;51.146;17.120;2024-01-15T10:38:39;2.91;67.12
66373;SHT30;53168;51.146;17.120;2024-01-15T10:41:10;2.83;67.02
66373;SHT30;53168;51.146;17.120;2024-01-15T10:43:43;2.83;67.10
66373;SHT30;53168;51.146;17.120;2024-01-15T10:46:13;2.94;66.78
66373;SHT30;53168;51.146;17.120;2024-01-15T10:48:44;3.07;66.82
66373;SHT30;53168;51.146;17.120;2024-01-15T10:51:16;3.22;66.58
66373;SHT30;53168;51.146;17.120;2024-01-15T10:53:48;3.38;66.04
66373;SHT30;53168;51.146;17.120;2024-01-15T10:56:19;3.47;65.70
66373;SHT30;53168;51.146;17.120;2024-01-15T10:58:51;3.54;65.89
66373;SHT30;53168;51.146;17.120;2024-01-15T11:01:27;3.63;66.27
66373;SHT30;53168;51.146;17.120;2024-01-15T11:03:59;3.75;65.82
66373;SHT30;53168;51.146;17.120;2024-01-15T11:06:42;3.86;65.74
66373;SHT30;53168;51.146;17.120;2024-01-15T11:09:14;4.00;65.78
66373;SHT30;53168;51.146;17.120;2024-01-15T11:11:47;4.11;65.00
66373;SHT30;53168;51.146;17.120;2024-01-15T11:14:34;4.14;65.11
66373;SHT30;53168;51.146;17.120;2024-01-15T11:17:05;4.14;64.45
66373;SHT30;53168;51.146;17.120;2024-01-15T11:19:43;4.16;64.34
66373;SHT30;53168;51.146;17.120;2024-01-15T11:22:47;4.26;64.03
66373;SHT30;53168;51.146;17.120;2024-01-15T11:25:20;4.48;64.09
66373;SHT30;53168;51.146;17.120;2024-01-15T11:27:52;4.59;64.03
66373;SHT30;53168;51.146;17.120;2024-01-15T11:30:26;4.59;63.44
66373;SHT30;53168;51.146;17.120;2024-01-15T11:32:56;4.42;63.43
66373;SHT30;53168;51.146;17.120;2024-01-15T11:35:50;4.26;63.19
66373;SHT30;53168;51.146;17.120;2024-01-15T11:38:29;4.24;62.77
66373;SHT30;53168;51.146;17.120;2024-01-15T11:40:59;4.45;63.17
66373;SHT30;53168;51.146;17.120;2024-01-15T11:43:30;4.64;61.96
66373;SHT30;53168;51.146;17.120;2024-01-15T11:46:02;4.68;61.82
66373;SHT30;53168;51.146;17.120;2024-01-15T11:48:43;4.65;62.48
66373;SHT30;53168;51.146;17.120;2024-01-15T11:51:18;4.63;62.31
66373;SHT30;53168;51.146;17.120;2024-01-15T11:53:55;4.98;61.38
66373;SHT30;53168;51.146;17.120;2024-01-15T11:56:32;5.17;61.09
66373;SHT30;53168;51.146;17.120;2024-01-15T11:59:02;5.37;59.72
66373;SHT30;53168;51.146;17.120;2024-01-15T12:01:34;5.37;59.87
66373;SHT30;53168;51.146;17.120;2024-01-15T12:04:04;4.89;60.78
66373;SHT30;53168;51.146;17.120;2024-01-15T12:06:35;4.52;61.43
66373;SHT30;53168;51.146;17.120;2024-01-15T12:09:08;4.24;62.12
66373;SHT30;53168;51.146;17.120;2024-01-15T12:11:53;4.04;62.60
66373;SHT30;53168;51.146;17.120;2024-01-15T12:14:28;3.89;62.48
66373;SHT30;53168;51.146;17.120;2024-01-15T12:16:58;3.79;62.79
66373;SHT30;53168;51.146;17.120;2024-01-15T12:19:32;3.72;63.17
66373;SHT30;53168;51.146;17.120;2024-01-15T12:22:03;3.68;63.40
66373;SHT30;53168;51.146;17.120;2024-01-15T12:24:33;3.66;63.49
66373;SHT30;53168;51.146;17.120;2024-01-15T12:27:04;3.64;63.59
66373;SHT30;53168;51.146;17.120;2024-01-15T12:29:34;3.64;63.64
66373;SHT30;53168;51.146;17.120;2024-01-15T12:32:05;3.68;63.70
66373;SHT30;53168;51.146;17.120;2024-01-15T12:34:38;3.71;63.64
66373;SHT30;53168;51.146;17.120;2024-01-15T12:37:08;3.71;63.59
66373;SHT30;53168;51.146;17.120;2024-01-15T12:39:39;3.70;63.67
66373;SHT30;53168;51.146;17.120;2024-01-15T12:42:13;3.67;63.79
66373;SHT30;53168;51.146;17.120;2024-01-15T12:44:43;3.66;63.65
66373;SHT30;53168;51.146;17.120;2024-01-15T12:47:14;3.62;63.63
66373;SHT30;53168;51.146;17.120;2024-01-15T12:49:48;3.55;63.84
66373;SHT30;53168;51.146;17.120;2024-01-15T12:52:24;3.49;63.84
66373;SHT30;53168;51.146;17.120;2024-01-15T12:54:58;3.46;63.87
66373;SHT30;53168;51.146;17.120;2024-01-15T12:57:28;3.45;64.01
66373;SHT30;53168;51.146;17.120;2024-01-15T12:59:58;3.46;63.55
66373;SHT30;53168;51.146;17.120;2024-01-15T13:02:28;3.44;63.64
66373;SHT30;53168;51.146;17.120;2024-01-15T13:05:00;3.38;63.76
66373;SHT30;53168;51.146;17.120;2024-01-15T13:07:32;3.32;64.06
66373;SHT30;53168;51.146;17.120;2024-01-15T13:10:02;3.26;64.34
66373;SHT30;53168;51.146;17.120;2024-01-15T13:12:33;3.21;64.41
66373;SHT30;53168;51.146;17.120;2024-01-15T13:15:05;3.18;64.37
66373;SHT30;53168;51.146;17.120;2024-01-15T13:17:40;3.15;64.53
66373;SHT30;53168;51.146;17.120;2024-01-15T13:20:12;3.15;64.57
66373;SHT30;53168;51.146;17.120;2024-01-15T13:22:42;3.15;64.31
66373;SHT30;53168;51.146;17.120;2024-01-15T13:25:14;3.14;64.36
66373;SHT30;53168;51.146;17.120;2024-01-15T13:27:44;3.14;64.35
66373;SHT30;53168;51.146;17.120;2024-01-15T13:30:14;3.12;64.40
66373;SHT30;53168;51.146;17.120;2024-01-15T13:32:45;3.12;64.43
66373;SHT30;53168;51.146;17.120;2024-01-15T13:35:16;3.09;64.42
66373;SHT30;53168;51.146;17.120;2024-01-15T13:37:45;3.08;64.46
66373;SHT30;53168;51.146;17.120;2024-01-15T13:40:16;3.08;64.60
66373;SHT30;53168;51.146;17.120;2024-01-15T13:42:48;3.08;64.59
66373;SHT30;53168;51.146;17.120;2024-01-15T13:45:20;3.10;64.33
66373;SHT30;53168;51.146;17.120;2024-01-15T13:47:52;3.10;64.49
66373;SHT30;53168;51.146;17.120;2024-01-15T13:50:22;3.07;64.64
66373;SHT30;53168;51.146;17.120;2024-01-15T13:52:53;3.05;64.67
66373;SHT30;53168;51.146;17.120;2024-01-15T13:55:24;3.06;64.48
66373;SHT30;53168;51.146;17.120;2024-01-15T13:57:54;3.03;64.59
66373;SHT30;53168;51.146;17.120;2024-01-15T14:00:24;3.01;64.54
66373;SHT30;53168;51.146;17.120;2024-01-15T14:02:54;3.02;64.34
66373;SHT30;53168;51.146;17.120;2024-01-15T14:05:25;3.05;64.28
66373;SHT30;53168;51.146;17.120;2024-01-15T14:07:56;3.01;64.46
66373;SHT30;53168;51.146;17.120;2024-01-15T14:10:26;3.03;64.21
66373;SHT30;53168;51.146;17.120;2024-01-15T14:12:56;3.01;64.30
66373;SHT30;53168;51.146;17.120;2024-01-15T14:15:26;2.99;64.26
66373;SHT30;53168;51.146;17.120;2024-01-15T14:17:57;2.96;64.42
66373;SHT30;53168;51.146;17.120;2024-01-15T14:20:27;2.95;64.37
66373;SHT30;53168;51.146;17.120;2024-01-15T14:22:57;2.91;64.47
66373;SHT30;53168;51.146;17.120;2024-01-15T14:25:27;2.88;64.63
66373;SHT30;53168;51.146;17.120;2024-01-15T14:27:57;2.88;64.73
66373;SHT30;53168;51.146;17.120;2024-01-15T14:30:26;2.90;64.66
66373;SHT30;53168;51.146;17.120;2024-01-15T14:32:56;2.89;64.71
66373;SHT30;53168;51.146;17.120;2024-01-15T14:35:27;2.89;64.59
66373;SHT30;53168;51.146;17.120;2024-01-15T14:37:56;2.88;64.64
66373;SHT30;53168;51.146;17.120;2024-01-15T14:40:27;2.89;64.57
66373;SHT30;53168;51.146;17.120;2024-01-15T14:42:58;2.88;64.64
66373;SHT30;53168;51.146;17.120;2024-01-15T14:45:28;2.86;64.64
66373;SHT30;53168;51.146;17.120;2024-01-15T14:47:58;2.86;64.61
66373;SHT30;53168;51.146;17.120;2024-01-15T14:50:28;2.85;64.75
66373;SHT30;53168;51.146;17.120;2024-01-15T14:52:58;2.84;64.76
66373;SHT30;53168;51.146;17.120;2024-01-15T14:55:28;2.85;64.67
66373;SHT30;53168;51.146;17.120;2024-01-15T14:57:58;2.84;64.83
66373;SHT30;53168;51.146;17.120;2024-01-15T15:00:28;2.83;64.95
66373;SHT30;53168;51.146;17.120;2024-01-15T15:02:58;2.82;64.80
66373;SHT30;53168;51.146;17.120;2024-01-15T15:05:28;2.84;64.73
66373;SHT30;53168;51.146;17.120;2024-01-15T15:07:58;2.84;64.86
66373;SHT30;53168;51.146;17.120;2024-01-15T15:10:28;2.83;64.84
66373;SHT30;53168;51.146;17.120;2024-01-15T15:12:58;2.83;64.78
66373;SHT30;53168;51.146;17.120;2024-01-15T15:15:28;2.83;64.69
66373;SHT30;53168;51.146;17.120;2024-01-15T15:18:11;2.89;64.57
66373;SHT30;53168;51.146;17.120;2024-01-15T15:21:22;2.89;64.58
66373;SHT30;53168;51.146;17.120;2024-01-15T15:23:52;2.91;64.58
66373;SHT30;53168;51.146;17.120;2024-01-15T15:26:22;2.92;64.68
66373;SHT30;53168;51.146;17.120;2024-01-15T15:28:52;2.91;64.85
66373;SHT30;53168;51.146;17.120;2024-01-15T15:31:28;2.89;64.92
66373;SHT30;53168;51.146;17.120;2024-01-15T15:33:58;2.87;65.07
66373;SHT30;53168;51.146;17.120;2024-01-15T15:36:29;2.84;65.07
66373;SHT30;53168;51.146;17.120;2024-01-15T15:38:59;2.84;65.08
66373;SHT30;53168;51.146;17.120;2024-01-15T15:41:29;2.82;65.16
66373;SHT30;53168;51.146;17.120;2024-01-15T15:43:59;2.80;65.28
66373;SHT30;53168;51.146;17.120;2024-01-15T15:46:29;2.80;65.33
66373;SHT30;53168;51.146;17.120;2024-01-15T15:48:59;2.81;65.46
66373;SHT30;53168;51.146;17.120;2024-01-15T15:51:35;2.81;65.56
66373;SHT30;53168;51.146;17.120;2024-01-15T15:54:05;2.80;65.75
66373;SHT30;53168;51.146;17.120;2024-01-15T15:56:35;2.80;65.77
66373;SHT30;53168;51.146;17.120;2024-01-15T15:59:07;2.79;65.89
66373;SHT30;53168;51.146;17.120;2024-01-15T16:01:37;2.77;66.00
66373;SHT30;53168;51.146;17.120;2024-01-15T16:04:07;2.77;66.10
66373;SHT30;53168;51.146;17.120;2024-01-15T16:06:37;2.78;66.20
66373;SHT30;53168;51.146;17.120;2024-01-15T16:09:07;2.74;66.42
66373;SHT30;53168;51.146;17.120;2024-01-15T16:11:39;2.70;66.60
66373;SHT30;53168;51.146;17.120;2024-01-15T16:14:09;2.66;66.80
66373;SHT30;53168;51.146;17.120;2024-01-15T16:16:39;2.65;67.01
66373;SHT30;53168;51.146;17.120;2024-01-15T16:19:30;2.61;67.25
66373;SHT30;53168;51.146;17.120;2024-01-15T16:22:21;2.57;67.46
66373;SHT30;53168;51.146;17.120;2024-01-15T16:25:12;2.52;67.73
66373;SHT30;53168;51.146;17.120;2024-01-15T16:27:42;2.51;67.78
66373;SHT30;53168;51.146;17.120;2024-01-15T16:30:14;2.49;67.93
66373;SHT30;53168;51.146;17.120;2024-01-15T16:32:57;2.49;68.00
66373;SHT30;53168;51.146;17.120;2024-01-15T16:35:27;2.48;68.06
66373;SHT30;53168;51.146;17.120;2024-01-15T16:37:58;2.45;68.15
66373;SHT30;53168;51.146;17.120;2024-01-15T16:40:27;2.42;68.28
66373;SHT30;53168;51.146;17.120;2024-01-15T16:42:59;2.40;68.40
66373;SHT30;53168;51.146;17.120;2024-01-15T16:45:29;2.39;68.62
66373;SHT30;53168;51.146;17.120;2024-01-15T16:47:59;2.36;68.86
66373;SHT30;53168;51.146;17.120;2024-01-15T16:50:29;2.29;69.12
66373;SHT30;53168;51.146;17.120;2024-01-15T16:52:59;2.27;69.25
66373;SHT30;53168;51.146;17.120;2024-01-15T16:55:29;2.23;69.40